createdAt,value
2018-04-14T00:00:39.841Z,51.60
2018-04-14T00:03:05.975Z,53.97
2018-04-14T00:05:32.079Z,51.07
2018-04-14T00:07:58.210Z,50.30
2018-04-14T00:10:24.351Z,54.80
2018-04-14T00:12:50.487Z,51.53
2018-04-14T00:15:16.615Z,57.17
2018-04-14T00:17:42.731Z,48.23
2018-04-14T00:20:08.832Z,47.80
2018-04-14T00:22:34.955Z,49.00
2018-04-14T00:25:01.108Z,50.90
2018-04-14T00:27:27.250Z,51.00
2018-04-14T00:29:54.100Z,50.50
2018-04-14T00:32:20.998Z,54.77
2018-04-14T00:34:47.142Z,51.20
2018-04-14T00:37:13.280Z,46.67
2018-04-14T00:39:40.166Z,47.80
2018-04-14T00:42:06.603Z,52.30
2018-04-14T00:44:32.729Z,51.87
2018-04-14T00:46:58.822Z,48.60
2018-04-14T00:49:24.975Z,44.70
2018-04-14T00:51:51.088Z,52.87
2018-04-14T00:54:17.247Z,52.73
2018-04-14T00:56:43.382Z,47.87
2018-04-14T00:59:09.508Z,50.27
2018-04-14T01:01:35.635Z,50.67
2018-04-14T01:04:01.755Z,44.97
2018-04-14T01:06:27.858Z,48.30
2018-04-14T01:08:53.975Z,50.13
2018-04-14T01:11:20.089Z,44.77
2018-04-14T01:13:46.215Z,40.57
2018-04-14T01:16:12.355Z,40.83
2018-04-14T01:18:38.475Z,38.13
2018-04-14T01:21:04.700Z,44.60
2018-04-14T01:23:30.801Z,48.97
2018-04-14T01:25:56.955Z,53.73
2018-04-14T01:28:23.100Z,51.97
2018-04-14T01:30:49.222Z,47.60
2018-04-14T01:33:15.355Z,52.50
2018-04-14T01:35:41.535Z,53.47
2018-04-14T01:38:07.638Z,49.20
2018-04-14T01:40:33.767Z,59.97
2018-04-14T01:42:59.897Z,61.17
2018-04-14T01:45:26.091Z,84.70
2018-04-14T01:47:52.242Z,106.83
2018-04-14T01:50:18.405Z,74.87
2018-04-14T01:52:44.498Z,85.20
2018-04-14T01:55:10.631Z,101.93
2018-04-14T01:57:36.774Z,78.50
2018-04-14T02:00:02.953Z,80.30
2018-04-14T02:02:29.056Z,79.00
2018-04-14T02:04:55.167Z,51.30
2018-04-14T02:07:21.272Z,49.43
2018-04-14T02:09:47.399Z,42.37
2018-04-14T02:12:13.951Z,49.73
2018-04-14T02:14:40.068Z,41.93
2018-04-14T02:17:06.217Z,41.00
2018-04-14T02:19:33.071Z,39.67
2018-04-14T02:21:59.243Z,40.97
2018-04-14T02:24:25.383Z,37.50
2018-04-14T02:26:51.499Z,35.60
2018-04-14T02:29:17.596Z,38.00
2018-04-14T02:31:43.725Z,37.40
2018-04-14T02:34:09.838Z,38.00
2018-04-14T02:36:35.955Z,35.50
2018-04-14T02:39:02.880Z,33.93
2018-04-14T02:41:29.010Z,35.93
2018-04-14T02:43:55.152Z,33.30
2018-04-14T02:46:21.261Z,34.90
2018-04-14T02:48:47.380Z,34.50
2018-04-14T02:51:13.487Z,35.57
2018-04-14T02:53:39.624Z,38.93
2018-04-14T02:56:05.743Z,43.20
2018-04-14T02:58:31.872Z,50.10
2018-04-14T03:00:57.998Z,55.43
2018-04-14T03:03:24.103Z,63.10
2018-04-14T03:05:50.239Z,68.40
2018-04-14T03:08:16.371Z,63.73
2018-04-14T03:10:42.474Z,80.40
2018-04-14T03:13:08.595Z,61.13
2018-04-14T03:15:34.746Z,54.90
2018-04-14T03:18:00.856Z,52.73
2018-04-14T03:20:26.958Z,57.90
2018-04-14T03:22:53.066Z,70.80
2018-04-14T03:25:19.608Z,63.83
2018-04-14T03:27:45.704Z,48.10
2018-04-14T03:30:11.875Z,51.90
2018-04-14T03:32:37.974Z,47.40
2018-04-14T03:35:04.098Z,45.90
2018-04-14T03:37:30.242Z,46.57
2018-04-14T03:39:56.370Z,59.13
2018-04-14T03:42:22.518Z,42.87
2018-04-14T03:44:48.640Z,37.23
2018-04-14T03:47:14.895Z,39.77
2018-04-14T03:49:41.197Z,41.33
2018-04-14T03:52:07.319Z,36.77
2018-04-14T03:54:33.425Z,45.37
2018-04-14T03:56:59.567Z,43.67
2018-04-14T03:59:25.675Z,38.87
2018-04-14T04:01:51.808Z,42.77
2018-04-14T04:04:17.903Z,42.10
2018-04-14T04:06:44.038Z,42.27
2018-04-14T04:09:10.158Z,75.70
2018-04-14T04:11:36.266Z,57.53
2018-04-14T04:14:02.395Z,55.73
2018-04-14T04:16:28.511Z,37.13
2018-04-14T04:19:07.551Z,37.67
2018-04-14T04:21:46.007Z,38.13
2018-04-14T04:24:25.203Z,49.93
2018-04-14T04:26:51.362Z,40.80
2018-04-14T04:29:17.454Z,38.50
2018-04-14T04:31:43.571Z,33.93
2018-04-14T04:34:09.671Z,61.13
2018-04-14T04:36:36.600Z,40.60
2018-04-14T04:39:02.771Z,44.63
2018-04-14T04:41:28.891Z,53.83
2018-04-14T04:43:55.010Z,74.67
2018-04-14T04:46:21.212Z,71.20
2018-04-14T04:48:47.351Z,54.53
2018-04-14T04:51:13.448Z,59.13
2018-04-14T04:53:39.593Z,45.03
2018-04-14T04:56:06.445Z,63.53
2018-04-14T04:58:32.602Z,55.60
2018-04-14T05:00:58.680Z,59.33
2018-04-14T05:03:25.558Z,67.93
2018-04-14T05:05:51.655Z,48.63
2018-04-14T05:08:17.786Z,34.43
2018-04-14T05:10:43.909Z,63.90
2018-04-14T05:13:10.031Z,35.93
2018-04-14T05:15:36.139Z,38.37
2018-04-14T05:18:02.411Z,60.97
2018-04-14T05:20:29.259Z,52.17
2018-04-14T05:22:55.439Z,36.20
2018-04-14T05:25:21.613Z,35.80
2018-04-14T05:27:47.790Z,30.90
2018-04-14T05:30:14.778Z,30.63
2018-04-14T05:32:41.761Z,44.87
2018-04-14T05:35:07.945Z,35.33
2018-04-14T05:37:34.156Z,32.20
2018-04-14T05:40:01.103Z,32.70
2018-04-14T05:42:27.319Z,42.97
2018-04-14T05:44:53.463Z,35.43
2018-04-14T05:47:19.620Z,35.07
2018-04-14T05:49:46.700Z,39.17
2018-04-14T05:52:13.685Z,54.20
2018-04-14T05:54:40.466Z,45.77
2018-04-14T05:57:06.933Z,52.83
2018-04-14T05:59:33.076Z,37.60
2018-04-14T06:01:59.267Z,33.50
2018-04-14T06:04:30.767Z,48.83
2018-04-14T06:06:56.978Z,34.10
2018-04-14T06:09:23.152Z,46.07
2018-04-14T06:11:49.322Z,47.33
2018-04-14T06:14:16.502Z,32.40
2018-04-14T06:16:42.683Z,47.90
2018-04-14T06:19:09.488Z,44.03
2018-04-14T06:21:35.688Z,42.83
2018-04-14T06:24:02.213Z,55.70
2018-04-14T06:26:28.395Z,47.70
2018-04-14T06:28:54.553Z,47.60
2018-04-14T06:31:20.736Z,45.60
2018-04-14T06:33:47.706Z,48.13
2018-04-14T06:36:17.201Z,51.97
2018-04-14T06:38:43.437Z,69.73
2018-04-14T06:41:10.421Z,54.27
2018-04-14T06:43:36.743Z,54.13
2018-04-14T06:46:02.995Z,60.80
2018-04-14T06:48:33.559Z,61.20
2018-04-14T06:51:00.558Z,63.40
2018-04-14T06:53:27.176Z,58.23
2018-04-14T06:55:53.368Z,51.80
2018-04-14T06:58:23.461Z,52.13
2018-04-14T07:00:58.717Z,60.00
2018-04-14T07:03:29.243Z,54.00
2018-04-14T07:05:59.608Z,57.57
2018-04-14T07:08:25.839Z,47.63
2018-04-14T07:10:52.008Z,53.37
2018-04-14T07:13:22.070Z,55.43
2018-04-14T07:15:48.243Z,52.50
2018-04-14T07:18:14.403Z,48.67
2018-04-14T07:20:40.608Z,47.60
2018-04-14T07:23:06.915Z,43.63
2018-04-14T07:25:33.268Z,53.93
2018-04-14T07:27:59.887Z,54.07
2018-04-14T07:30:26.138Z,55.90
2018-04-14T07:32:53.681Z,55.60
2018-04-14T07:35:19.970Z,55.20
2018-04-14T07:37:46.109Z,57.03
2018-04-14T07:40:12.310Z,60.30
2018-04-14T07:42:38.692Z,51.83
2018-04-14T07:45:05.625Z,52.60
2018-04-14T07:47:31.754Z,59.90
2018-04-14T07:49:57.930Z,57.37
2018-04-14T07:52:28.060Z,52.03
2018-04-14T07:54:58.091Z,48.80
2018-04-14T07:57:24.256Z,50.80
2018-04-14T07:59:55.655Z,47.37
2018-04-14T08:02:21.847Z,45.90
2018-04-14T08:04:49.358Z,39.80
2018-04-14T08:07:20.374Z,48.90
2018-04-14T08:09:46.588Z,42.93
2018-04-14T08:12:12.781Z,34.67
2018-04-14T08:14:38.907Z,38.83
2018-04-14T08:17:05.118Z,33.40
2018-04-14T08:19:31.267Z,33.80
2018-04-14T08:21:58.165Z,29.97
2018-04-14T08:24:24.415Z,40.37
2018-04-14T08:26:50.619Z,33.87
2018-04-14T08:29:16.752Z,37.90
2018-04-14T08:31:49.078Z,35.57
2018-04-14T08:34:15.297Z,40.37
2018-04-14T08:36:41.439Z,34.93
2018-04-14T08:39:07.631Z,28.17
2018-04-14T08:41:34.492Z,33.23
2018-04-14T08:44:10.083Z,28.80
2018-04-14T08:46:36.429Z,30.30
2018-04-14T08:49:02.655Z,35.43
2018-04-14T08:51:28.799Z,38.80
2018-04-14T08:53:55.727Z,34.80
2018-04-14T08:56:22.479Z,26.90
2018-04-14T08:58:49.479Z,28.03
2018-04-14T09:01:15.680Z,29.67
2018-04-14T09:03:47.121Z,32.40
2018-04-14T09:06:14.138Z,30.40
2018-04-14T09:08:40.318Z,34.23
2018-04-14T09:11:07.217Z,27.17
2018-04-14T09:13:33.621Z,25.73
2018-04-14T09:15:59.822Z,28.00
2018-04-14T09:21:12.533Z,22.17
2018-04-14T09:23:39.613Z,23.20
2018-04-14T09:26:05.760Z,22.40
2018-04-14T09:28:31.917Z,21.53
2018-04-14T09:30:58.833Z,23.40
2018-04-14T09:33:25.201Z,21.27
2018-04-14T09:35:51.443Z,21.10
2018-04-14T09:38:18.323Z,22.40
2018-04-14T09:40:44.521Z,19.57
2018-04-14T09:43:11.671Z,20.27
2018-04-14T09:45:37.887Z,20.73
2018-04-14T09:48:04.031Z,19.07
2018-04-14T09:50:30.214Z,20.90
2018-04-14T09:53:01.011Z,24.23
2018-04-14T09:55:27.658Z,18.00
2018-04-14T09:57:58.185Z,21.20
2018-04-14T10:00:26.134Z,16.60
2018-04-14T10:05:57.061Z,17.80
2018-04-14T10:08:33.128Z,17.30
2018-04-14T10:10:59.298Z,16.73
2018-04-14T10:13:26.327Z,21.30
2018-04-14T10:15:52.730Z,17.87
2018-04-14T10:18:18.930Z,17.20
2018-04-14T10:20:53.415Z,23.97
2018-04-14T10:23:19.596Z,21.33
2018-04-14T10:25:54.775Z,22.23
2018-04-14T10:28:23.965Z,14.70
2018-04-14T10:30:50.476Z,18.40
2018-04-14T10:33:21.090Z,16.90
2018-04-14T10:35:47.285Z,18.37
2018-04-14T10:38:14.701Z,16.10
2018-04-14T10:40:41.239Z,15.57
2018-04-14T10:43:11.879Z,16.80
2018-04-14T10:45:38.051Z,15.10
2018-04-14T10:48:04.494Z,13.27
2018-04-14T10:50:31.393Z,16.50
2018-04-14T10:52:57.617Z,17.00
2018-04-14T10:55:23.821Z,15.10
2018-04-14T10:57:50.771Z,18.60
2018-04-14T11:00:17.007Z,17.23
2018-04-14T11:02:43.235Z,19.10
2018-04-14T11:05:10.406Z,13.60
2018-04-14T11:07:37.251Z,15.73
2018-04-14T11:10:03.483Z,10.50
2018-04-14T11:12:30.322Z,11.60
2018-04-14T11:14:56.726Z,11.30
2018-04-14T11:17:22.993Z,10.10
2018-04-14T11:19:49.445Z,9.53
2018-04-14T11:22:16.068Z,12.97
2018-04-14T11:24:42.220Z,10.60
2018-04-14T11:27:08.397Z,12.47
2018-04-14T11:29:39.759Z,12.67
2018-04-14T11:32:09.692Z,16.83
2018-04-14T11:34:35.899Z,12.80
2018-04-14T11:37:02.094Z,11.70
2018-04-14T11:39:36.563Z,11.47
2018-04-14T11:42:03.516Z,17.27
2018-04-14T11:44:29.680Z,9.90
2018-04-14T11:46:56.605Z,11.83
2018-04-14T11:49:22.797Z,9.70
2018-04-14T11:51:49.055Z,10.57
2018-04-14T11:54:15.249Z,6.97
2018-04-14T11:56:42.149Z,6.83
2018-04-14T11:59:09.747Z,9.37
2018-04-14T12:01:35.899Z,16.07
2018-04-14T12:04:02.136Z,10.80
2018-04-14T12:06:28.344Z,9.10
2018-04-14T12:08:54.536Z,12.83
2018-04-14T12:11:25.349Z,8.87
2018-04-14T12:13:51.887Z,6.30
2018-04-14T12:16:18.292Z,6.33
2018-04-14T12:18:45.376Z,6.83
2018-04-14T12:21:16.731Z,6.63
2018-04-14T12:23:42.979Z,6.87
2018-04-14T12:26:09.166Z,6.10
2018-04-14T12:28:42.091Z,6.47
2018-04-14T12:31:08.428Z,6.70
2018-04-14T12:33:35.558Z,5.43
2018-04-14T12:36:05.734Z,5.97
2018-04-14T12:38:32.776Z,7.90
2018-04-14T12:40:59.646Z,5.13
2018-04-14T12:43:25.838Z,7.03
2018-04-14T12:45:52.215Z,11.70
2018-04-14T12:48:19.108Z,9.93
2018-04-14T12:50:45.287Z,6.67
2018-04-14T12:53:12.640Z,6.70
2018-04-14T12:55:43.494Z,4.13
2018-04-14T12:58:14.256Z,4.93
2018-04-14T13:00:45.604Z,3.33
2018-04-14T13:03:17.575Z,3.10
2018-04-14T13:05:43.777Z,4.00
2018-04-14T13:08:09.944Z,6.43
2018-04-14T13:10:44.699Z,5.40
2018-04-14T13:13:11.223Z,8.07
2018-04-14T13:15:37.443Z,5.83
2018-04-14T13:18:04.131Z,7.53
2018-04-14T13:20:31.063Z,3.60
2018-04-14T13:22:57.249Z,4.13
2018-04-14T13:25:27.831Z,3.67
2018-04-14T13:27:54.052Z,3.43
2018-04-14T13:30:20.288Z,4.20
2018-04-14T13:32:47.099Z,3.83
2018-04-14T13:35:17.129Z,6.50
2018-04-14T13:37:43.309Z,4.80
2018-04-14T13:40:10.983Z,6.93
2018-04-14T13:42:38.115Z,4.27
2018-04-14T13:45:04.247Z,5.40
2018-04-14T13:47:31.889Z,6.00
2018-04-14T13:49:58.060Z,10.83
2018-04-14T13:52:24.887Z,6.00
2018-04-14T13:54:51.074Z,5.60
2018-04-14T13:57:17.336Z,3.97
2018-04-14T13:59:43.490Z,5.27
2018-04-14T14:02:10.724Z,3.33
2018-04-14T14:04:36.963Z,4.27
2018-04-14T14:07:07.166Z,4.57
2018-04-14T14:09:33.928Z,3.63
2018-04-14T14:12:00.119Z,5.53
2018-04-14T14:14:26.357Z,6.73
2018-04-14T14:16:53.888Z,3.37
2018-04-14T14:19:20.100Z,5.60
2018-04-14T14:21:55.034Z,10.30
2018-04-14T14:24:21.131Z,4.27
2018-04-14T14:26:47.565Z,5.23
2018-04-14T14:29:14.087Z,4.37
2018-04-14T14:31:40.891Z,4.67
2018-04-14T14:34:07.859Z,2.40
2018-04-14T14:36:34.224Z,3.63
2018-04-14T14:39:00.448Z,11.43
2018-04-14T14:41:27.383Z,2.67
2018-04-14T14:43:53.576Z,4.60
2018-04-14T14:46:20.534Z,3.17
2018-04-14T14:48:50.459Z,3.77
2018-04-14T14:51:16.646Z,5.47
2018-04-14T14:53:43.259Z,5.70
2018-04-14T14:56:09.487Z,4.37
2018-04-14T14:58:35.627Z,6.77
2018-04-14T15:01:02.072Z,8.70
2018-04-14T15:03:32.472Z,2.70
2018-04-14T15:06:08.521Z,2.50
2018-04-14T15:08:43.725Z,9.17
2018-04-14T15:11:22.265Z,3.50
2018-04-14T15:13:49.010Z,2.80
2018-04-14T15:16:16.398Z,5.50
2018-04-14T15:18:58.058Z,2.50
2018-04-14T15:21:24.259Z,3.20
2018-04-14T15:23:50.434Z,4.20
2018-04-14T15:26:17.772Z,2.80
2018-04-14T15:28:44.081Z,4.17
2018-04-14T15:31:14.727Z,3.83
2018-04-14T15:33:41.643Z,5.30
2018-04-14T15:36:08.423Z,2.70
2018-04-14T15:38:34.644Z,3.20
2018-04-14T15:41:00.836Z,2.30
2018-04-14T15:43:27.810Z,9.87
2018-04-14T15:45:57.051Z,4.60
2018-04-14T15:48:23.217Z,4.00
2018-04-14T15:50:53.477Z,6.20
2018-04-14T15:53:23.737Z,4.63
2018-04-14T15:55:50.425Z,4.63
2018-04-14T15:58:18.929Z,3.30
2018-04-14T16:00:45.842Z,3.90
2018-04-14T16:03:13.109Z,4.33
2018-04-14T16:05:44.338Z,4.80
2018-04-14T16:08:10.530Z,1.70
2018-04-14T16:10:40.729Z,4.13
2018-04-14T16:13:07.141Z,6.20
2018-04-14T16:15:33.286Z,3.70
2018-04-14T16:17:59.472Z,2.07
2018-04-14T16:20:27.619Z,4.33
2018-04-14T16:22:55.615Z,2.27
2018-04-14T16:25:22.039Z,3.13
2018-04-14T16:27:48.220Z,2.77
2018-04-14T16:30:14.847Z,2.40
2018-04-14T16:32:45.168Z,7.10
2018-04-14T16:35:11.415Z,2.67
2018-04-14T16:37:41.069Z,5.47
2018-04-14T16:40:08.253Z,5.37
2018-04-14T16:42:34.386Z,4.43
2018-04-14T16:45:00.597Z,6.03
2018-04-14T16:47:30.704Z,1.90
2018-04-14T16:50:01.769Z,2.73
2018-04-14T16:52:32.143Z,5.03
2018-04-14T16:54:58.386Z,3.83
2018-04-14T16:57:33.539Z,3.40
2018-04-14T17:00:00.647Z,2.20
2018-04-14T17:02:26.823Z,2.40
2018-04-14T17:04:53.124Z,2.80
2018-04-14T17:07:19.420Z,3.97
2018-04-14T17:09:49.499Z,4.00
2018-04-14T17:12:16.501Z,4.23
2018-04-14T17:14:42.647Z,8.33
2018-04-14T17:17:08.907Z,2.80
2018-04-14T17:19:35.182Z,4.23
2018-04-14T17:22:01.663Z,3.23
2018-04-14T17:24:27.843Z,5.10
2018-04-14T17:27:02.707Z,7.60
2018-04-14T17:29:28.892Z,4.17
2018-04-14T17:31:55.947Z,4.13
2018-04-14T17:34:22.098Z,7.23
2018-04-14T17:36:48.348Z,3.00
2018-04-14T17:39:14.532Z,5.50
2018-04-14T17:41:40.717Z,6.10
2018-04-14T17:44:06.908Z,3.20
2018-04-14T17:46:35.184Z,3.53
2018-04-14T17:49:02.498Z,6.63
2018-04-14T17:51:28.923Z,4.50
2018-04-14T17:54:00.056Z,6.70
2018-04-14T17:56:26.183Z,7.43
2018-04-14T17:58:52.918Z,18.13
2018-04-14T18:01:19.787Z,8.50
2018-04-14T18:03:46.623Z,6.27
2018-04-14T18:06:22.424Z,10.77
2018-04-14T18:08:48.591Z,8.03
2018-04-14T18:11:14.995Z,11.93
2018-04-14T18:13:41.203Z,8.03
2018-04-14T18:16:07.407Z,7.83
2018-04-14T18:18:34.594Z,14.63
2018-04-14T18:21:01.442Z,14.63
2018-04-14T18:23:32.534Z,8.90
2018-04-14T18:25:59.600Z,8.73
2018-04-14T18:28:26.501Z,18.70
2018-04-14T18:30:57.358Z,21.47
2018-04-14T18:33:23.754Z,16.10
2018-04-14T18:35:52.211Z,13.23
2018-04-14T18:38:19.483Z,9.83
2018-04-14T18:40:49.739Z,15.10
2018-04-14T18:43:17.464Z,19.30
2018-04-14T18:45:44.199Z,15.63
2018-04-14T18:48:10.432Z,10.63
2018-04-14T18:50:40.545Z,7.80
2018-04-14T18:53:06.736Z,11.30
2018-04-14T18:55:33.096Z,11.20
2018-04-14T18:58:00.058Z,12.40
2018-04-14T19:00:26.266Z,11.10
2018-04-14T19:02:52.426Z,8.67
2018-04-14T19:05:24.417Z,8.37
2018-04-14T19:07:56.636Z,9.60
2018-04-14T19:10:26.799Z,10.57
2018-04-14T19:12:53.009Z,8.90
2018-04-14T19:15:19.996Z,8.97
2018-04-14T19:17:46.184Z,10.33
2018-04-14T19:20:12.596Z,11.90
2018-04-14T19:22:38.813Z,12.33
2018-04-14T19:25:04.962Z,20.13
2018-04-14T19:27:31.174Z,17.70
2018-04-14T19:29:57.358Z,13.37
2018-04-14T19:32:28.657Z,18.53
2018-04-14T19:34:54.816Z,19.67
2018-04-14T19:37:21.590Z,35.70
2018-04-14T19:39:48.390Z,25.97
2018-04-14T19:42:14.624Z,15.33
2018-04-14T19:44:40.820Z,10.60
2018-04-14T19:47:07.073Z,11.70
2018-04-14T19:49:33.988Z,7.50
2018-04-14T19:52:00.265Z,6.20
2018-04-14T19:54:26.497Z,7.90
2018-04-14T19:56:53.707Z,14.83
2018-04-14T19:59:20.712Z,24.10
2018-04-14T20:01:46.868Z,8.13
2018-04-14T20:04:13.135Z,5.60
2018-04-14T20:06:41.826Z,11.27
2018-04-14T20:09:08.268Z,11.50
2018-04-14T20:11:34.471Z,25.93
2018-04-14T20:14:01.573Z,14.10
2018-04-14T20:16:27.801Z,11.10
2018-04-14T20:18:54.038Z,7.20
2018-04-14T20:21:24.728Z,11.90
2018-04-14T20:23:50.944Z,12.23
2018-04-14T20:26:17.220Z,6.67
2018-04-14T20:28:44.011Z,12.33
2018-04-14T20:31:10.266Z,9.43
2018-04-14T20:33:36.687Z,19.73
2018-04-14T20:36:02.947Z,6.53
2018-04-14T20:38:30.071Z,4.40
2018-04-14T20:40:56.630Z,3.77
2018-04-14T20:43:22.920Z,7.77
2018-04-14T20:45:49.134Z,10.33
2018-04-14T20:48:17.253Z,13.00
2018-04-14T20:50:44.481Z,7.07
2018-04-14T20:53:10.659Z,12.07
2018-04-14T20:55:36.905Z,7.63
2018-04-14T20:58:03.496Z,7.07
2018-04-14T21:00:30.243Z,6.97
2018-04-14T21:02:56.776Z,5.60
2018-04-14T21:05:35.276Z,5.53
2018-04-14T21:08:05.821Z,4.80
2018-04-14T21:13:04.071Z,7.90
2018-04-14T21:15:30.295Z,5.07
2018-04-14T21:17:57.547Z,9.23
2018-04-14T21:20:23.799Z,4.47
2018-04-14T21:22:50.006Z,6.17
2018-04-14T21:25:16.890Z,3.60
2018-04-14T21:27:43.495Z,3.80
2018-04-14T21:30:09.779Z,4.93
2018-04-14T21:32:36.713Z,12.00
2018-04-14T21:35:04.074Z,9.83
2018-04-14T21:37:31.632Z,10.87
2018-04-14T21:40:02.854Z,5.40
2018-04-14T21:42:29.088Z,5.63
2018-04-14T21:44:55.312Z,4.40
2018-04-14T21:47:21.498Z,6.67
2018-04-14T21:49:48.401Z,7.07
2018-04-14T21:52:14.649Z,13.53
2018-04-14T21:54:41.262Z,6.20
2018-04-14T21:57:08.130Z,7.00
2018-04-14T21:59:34.296Z,17.70
2018-04-14T22:02:00.423Z,3.90
2018-04-14T22:04:26.618Z,9.80
2018-04-14T22:06:52.774Z,12.67
2018-04-14T22:09:18.913Z,4.03
2018-04-14T22:11:45.083Z,8.53
2018-04-14T22:14:24.161Z,5.40
2018-04-14T22:16:50.303Z,3.97
2018-04-14T22:19:17.190Z,12.23
2018-04-14T22:21:43.339Z,4.90
2018-04-14T22:24:09.465Z,5.33
2018-04-14T22:26:35.600Z,12.00
2018-04-14T22:29:01.859Z,6.00
2018-04-14T22:31:28.012Z,7.30
2018-04-14T22:33:54.135Z,6.10
2018-04-14T22:36:20.292Z,15.13
2018-04-14T22:38:46.403Z,12.63
2018-04-14T22:41:12.528Z,6.37
2018-04-14T22:43:38.646Z,8.60
2018-04-14T22:46:04.792Z,8.30
2018-04-14T22:48:30.907Z,6.90
2018-04-14T22:50:57.023Z,8.40
2018-04-14T22:53:23.177Z,11.30
2018-04-14T22:55:49.277Z,7.70
2018-04-14T22:58:15.431Z,8.50
2018-04-14T23:00:41.589Z,8.47
2018-04-14T23:03:07.736Z,7.50
2018-04-14T23:05:33.842Z,11.07
2018-04-14T23:07:59.958Z,7.47
2018-04-14T23:10:26.101Z,6.10
2018-04-14T23:12:52.264Z,8.80
2018-04-14T23:15:18.392Z,6.30
2018-04-14T23:17:44.523Z,5.50
2018-04-14T23:20:10.638Z,7.30
2018-04-14T23:22:36.764Z,7.57
2018-04-14T23:25:02.891Z,14.00
2018-04-14T23:27:29.040Z,7.37
2018-04-14T23:29:55.603Z,9.13
2018-04-14T23:32:22.455Z,20.37
2018-04-14T23:34:48.605Z,10.43
2018-04-14T23:37:14.723Z,20.43
2018-04-14T23:39:40.887Z,8.00
2018-04-14T23:42:07.008Z,8.33
2018-04-14T23:44:33.147Z,9.10
2018-04-14T23:46:59.275Z,6.77
2018-04-14T23:49:25.501Z,10.37
2018-04-14T23:51:51.687Z,8.47
2018-04-14T23:54:17.832Z,8.97
2018-04-14T23:56:43.954Z,8.57
2018-04-14T23:59:10.103Z,5.70
